createdAt,value
2023-01-09T00:01:46.173Z,92528.00
2023-01-09T00:04:15.876Z,92537.00
2023-01-09T00:06:43.599Z,92545.00
2023-01-09T00:09:13.783Z,92539.00
2023-01-09T00:11:41.033Z,92526.00
2023-01-09T00:14:11.504Z,92524.00
2023-01-09T00:16:40.907Z,92508.00
2023-01-09T00:19:08.073Z,92508.00
2023-01-09T00:21:36.291Z,92504.00
2023-01-09T00:24:06.644Z,92497.00
2023-01-09T00:26:38.156Z,92510.00
2023-01-09T00:29:09.706Z,92502.00
2023-01-09T00:31:36.645Z,92492.00
2023-01-09T00:34:12.660Z,92496.00
2023-01-09T00:36:39.599Z,92500.00
2023-01-09T00:39:07.013Z,92492.00
2023-01-09T00:41:49.569Z,92495.00
2023-01-09T00:44:30.310Z,92500.00
2023-01-09T00:47:01.770Z,92491.00
2023-01-09T00:49:30.567Z,92486.00
2023-01-09T00:52:00.490Z,92495.00
2023-01-09T00:54:30.306Z,92494.00
2023-01-09T00:57:00.069Z,92495.00
2023-01-09T00:59:28.063Z,92494.00
2023-01-09T01:01:58.014Z,92497.00
2023-01-09T01:04:43.683Z,92498.00
2023-01-09T01:07:29.122Z,92510.00
2023-01-09T01:09:56.130Z,92505.00
2023-01-09T01:12:23.189Z,92488.00
2023-01-09T01:14:50.115Z,92491.00
2023-01-09T01:17:19.500Z,92486.00
2023-01-09T01:19:49.087Z,92482.00
2023-01-09T01:22:18.352Z,92472.00
2023-01-09T01:24:45.296Z,92471.00
2023-01-09T01:27:12.148Z,92469.00
2023-01-09T01:29:41.580Z,92479.00
2023-01-09T01:32:11.817Z,92472.00
2023-01-09T01:34:40.898Z,92478.00
2023-01-09T01:37:12.547Z,92485.00
2023-01-09T01:39:41.958Z,92501.00
2023-01-09T01:42:12.173Z,92495.00
2023-01-09T01:45:03.947Z,92501.00
2023-01-09T01:47:59.218Z,92506.00
2023-01-09T01:51:01.337Z,92489.00
2023-01-09T01:53:43.718Z,92475.00
2023-01-09T01:56:28.441Z,92473.00
2023-01-09T01:59:18.699Z,92472.00
2023-01-09T02:01:56.199Z,92469.00
2023-01-09T02:04:23.224Z,92485.00
2023-01-09T02:06:54.232Z,92497.00
2023-01-09T02:09:25.345Z,92492.00
2023-01-09T02:11:57.586Z,92501.00
2023-01-09T02:14:34.359Z,92500.00
2023-01-09T02:17:41.933Z,92505.00
2023-01-09T02:20:28.982Z,92491.00
2023-01-09T02:23:52.413Z,92481.00
2023-01-09T02:26:38.361Z,92475.00
2023-01-09T02:29:44.131Z,92492.00
2023-01-09T02:32:45.032Z,92493.00
2023-01-09T02:35:40.278Z,92490.00
2023-01-09T02:38:40.479Z,92500.00
2023-01-09T02:41:55.732Z,92499.00
2023-01-09T02:44:25.865Z,92512.00
2023-01-09T02:47:05.994Z,92509.00
2023-01-09T02:49:38.508Z,92509.00
2023-01-09T02:52:26.915Z,92519.00
2023-01-09T02:55:12.459Z,92517.00
2023-01-09T02:58:09.131Z,92516.00
2023-01-09T03:01:07.903Z,92533.00
2023-01-09T03:03:36.990Z,92545.00
2023-01-09T03:06:10.872Z,92540.00
2023-01-09T03:08:49.127Z,92546.00
2023-01-09T03:11:16.180Z,92559.00
2023-01-09T03:13:52.473Z,92562.00
2023-01-09T03:16:33.836Z,92573.00
2023-01-09T03:19:03.937Z,92580.00
2023-01-09T03:21:32.414Z,92598.00
2023-01-09T03:24:02.020Z,92601.00
2023-01-09T03:26:33.047Z,92601.00
2023-01-09T03:29:00.216Z,92597.00
2023-01-09T03:31:29.417Z,92613.00
2023-01-09T03:33:56.566Z,92619.00
2023-01-09T03:36:26.942Z,92617.00
2023-01-09T03:38:58.418Z,92618.00
2023-01-09T03:41:25.922Z,92621.00
2023-01-09T03:43:55.119Z,92639.00
2023-01-09T03:46:21.961Z,92649.00
2023-01-09T03:48:48.828Z,92633.00
2023-01-09T03:51:17.820Z,92652.00
2023-01-09T03:53:44.832Z,92631.00
2023-01-09T03:56:16.467Z,92634.00
2023-01-09T03:58:46.352Z,92641.00
2023-01-09T04:01:13.316Z,92658.00
2023-01-09T04:03:41.526Z,92655.00
2023-01-09T04:06:11.816Z,92662.00
2023-01-09T04:08:38.747Z,92666.00
2023-01-09T04:11:06.838Z,92688.00
2023-01-09T04:13:36.191Z,92697.00
2023-01-09T04:16:03.189Z,92686.00
2023-01-09T04:18:32.582Z,92694.00
2023-01-09T04:21:04.079Z,92712.00
2023-01-09T04:23:33.032Z,92720.00
2023-01-09T04:25:59.873Z,92735.00
2023-01-09T04:28:31.405Z,92742.00
2023-01-09T04:31:03.099Z,92734.00
2023-01-09T04:33:33.124Z,92747.00
2023-01-09T04:36:00.108Z,92743.00
2023-01-09T04:38:27.465Z,92742.00
2023-01-09T04:40:54.440Z,92747.00
2023-01-09T04:43:21.389Z,92764.00
2023-01-09T04:45:48.370Z,92774.00
2023-01-09T04:48:15.420Z,92786.00
2023-01-09T04:50:42.323Z,92802.00
2023-01-09T04:53:12.324Z,92805.00
2023-01-09T04:55:41.234Z,92804.00
2023-01-09T04:58:08.184Z,92816.00
2023-01-09T05:00:37.699Z,92820.00
2023-01-09T05:03:04.725Z,92830.00
2023-01-09T05:05:36.363Z,92839.00
2023-01-09T05:08:06.011Z,92838.00
2023-01-09T05:10:32.908Z,92843.00
2023-01-09T05:13:01.842Z,92847.00
2023-01-09T05:15:30.996Z,92840.00
2023-01-09T05:17:57.898Z,92856.00
2023-01-09T05:20:27.248Z,92849.00
2023-01-09T05:22:57.141Z,92863.00
2023-01-09T05:25:27.318Z,92868.00
2023-01-09T05:27:54.255Z,92878.00
2023-01-09T05:30:21.302Z,92887.00
2023-01-09T05:32:48.215Z,92897.00
2023-01-09T05:35:20.191Z,92907.00
2023-01-09T05:37:49.985Z,92909.00
2023-01-09T05:40:17.242Z,92907.00
2023-01-09T05:42:44.856Z,92924.00
2023-01-09T05:45:12.094Z,92923.00
2023-01-09T05:47:39.171Z,92923.00
2023-01-09T05:50:06.518Z,92919.00
2023-01-09T05:52:35.572Z,92925.00
2023-01-09T05:55:02.615Z,92926.00
2023-01-09T05:57:32.026Z,92926.00
2023-01-09T06:00:01.137Z,92912.00
2023-01-09T06:02:28.093Z,92921.00
2023-01-09T06:04:55.017Z,92935.00
2023-01-09T06:07:23.464Z,92940.00
2023-01-09T06:09:55.414Z,92936.00
2023-01-09T06:12:24.862Z,92938.00
2023-01-09T06:14:56.298Z,92937.00
2023-01-09T06:17:23.239Z,92937.00
2023-01-09T06:19:55.172Z,92928.00
2023-01-09T06:22:22.085Z,92929.00
2023-01-09T06:24:51.452Z,92926.00
2023-01-09T06:27:22.937Z,92925.00
2023-01-09T06:29:51.943Z,92921.00
2023-01-09T06:32:18.847Z,92921.00
2023-01-09T06:34:47.946Z,92913.00
2023-01-09T06:37:17.434Z,92919.00
2023-01-09T06:39:44.302Z,92920.00
2023-01-09T06:42:11.178Z,92915.00
2023-01-09T06:44:38.053Z,92915.00
2023-01-09T06:47:08.263Z,92924.00
2023-01-09T06:49:35.193Z,92926.00
2023-01-09T06:52:07.444Z,92944.00
2023-01-09T06:54:39.040Z,92943.00
2023-01-09T06:57:05.846Z,92956.00
2023-01-09T06:59:39.951Z,92957.00
2023-01-09T07:02:08.928Z,92960.00
2023-01-09T07:04:42.822Z,92958.00
2023-01-09T07:07:09.720Z,92955.00
2023-01-09T07:09:36.571Z,92956.00
2023-01-09T07:12:06.671Z,92964.00
2023-01-09T07:14:34.128Z,92965.00
2023-01-09T07:17:01.045Z,92959.00
2023-01-09T07:19:30.698Z,92955.00
2023-01-09T07:22:00.163Z,92956.00
2023-01-09T07:24:27.084Z,92958.00
2023-01-09T07:26:56.555Z,92967.00
2023-01-09T07:29:23.405Z,92965.00
2023-01-09T07:31:50.307Z,92976.00
2023-01-09T07:34:17.236Z,92986.00
2023-01-09T07:36:46.612Z,92980.00
2023-01-09T07:39:13.920Z,92980.00
2023-01-09T07:41:40.908Z,92987.00
2023-01-09T07:44:11.205Z,92975.00
2023-01-09T07:46:38.498Z,92979.00
2023-01-09T07:49:08.164Z,92987.00
2023-01-09T07:51:35.124Z,92984.00
2023-01-09T07:54:04.110Z,92981.00
2023-01-09T07:56:33.132Z,92966.00
2023-01-09T07:59:02.105Z,92973.00
2023-01-09T08:01:31.211Z,92972.00
2023-01-09T08:03:58.377Z,92967.00
2023-01-09T08:06:25.258Z,92958.00
2023-01-09T08:08:52.093Z,92969.00
2023-01-09T08:11:21.467Z,92970.00
2023-01-09T08:13:48.383Z,92963.00
2023-01-09T08:16:15.712Z,92971.00
2023-01-09T08:18:43.171Z,92967.00
2023-01-09T08:21:11.341Z,92966.00
2023-01-09T08:23:38.547Z,92964.00
2023-01-09T08:26:05.813Z,92957.00
2023-01-09T08:28:35.345Z,92957.00
2023-01-09T08:31:02.228Z,92953.00
2023-01-09T08:33:29.323Z,92961.00
2023-01-09T08:35:59.086Z,92963.00
2023-01-09T08:38:25.941Z,92953.00
2023-01-09T08:40:52.910Z,92962.00
2023-01-09T08:43:38.099Z,92963.00
2023-01-09T08:46:38.304Z,92969.00
2023-01-09T08:49:05.275Z,92971.00
2023-01-09T08:51:34.373Z,92976.00
2023-01-09T08:54:01.294Z,92988.00
2023-01-09T08:56:28.191Z,92988.00
2023-01-09T08:58:55.061Z,92997.00
2023-01-09T09:01:24.006Z,92988.00
2023-01-09T09:03:50.840Z,92983.00
2023-01-09T09:06:17.770Z,92976.00
2023-01-09T09:08:44.673Z,92974.00
2023-01-09T09:11:16.056Z,92985.00
2023-01-09T09:13:42.921Z,92984.00
2023-01-09T09:16:12.027Z,92974.00
2023-01-09T09:18:39.924Z,92979.00
2023-01-09T09:21:06.860Z,92989.00
2023-01-09T09:23:33.754Z,92984.00
2023-01-09T09:26:03.827Z,92981.00
2023-01-09T09:28:33.292Z,92989.00
2023-01-09T09:31:00.208Z,92992.00
2023-01-09T09:33:27.128Z,92992.00
2023-01-09T09:35:56.265Z,92998.00
2023-01-09T09:38:23.289Z,93002.00
2023-01-09T09:41:37.501Z,92999.00
2023-01-09T09:44:48.455Z,92990.00
2023-01-09T09:48:02.928Z,92989.00
2023-01-09T09:50:41.649Z,92991.00
2023-01-09T09:53:27.755Z,92997.00
2023-01-09T09:55:57.552Z,92986.00
2023-01-09T09:58:48.870Z,92986.00
2023-01-09T10:01:23.999Z,92990.00
2023-01-09T10:03:56.701Z,92973.00
2023-01-09T10:06:50.302Z,92972.00
2023-01-09T10:09:41.630Z,92971.00
2023-01-09T10:12:21.017Z,92980.00
2023-01-09T10:14:48.100Z,92981.00
2023-01-09T10:17:49.912Z,92986.00
2023-01-09T10:20:25.419Z,92984.00
2023-01-09T10:23:39.129Z,92981.00
2023-01-09T10:26:43.280Z,92988.00
2023-01-09T10:29:31.192Z,92979.00
2023-01-09T10:32:49.955Z,92989.00
2023-01-09T10:35:39.402Z,92986.00
2023-01-09T10:38:23.030Z,92988.00
2023-01-09T10:41:24.894Z,92977.00
2023-01-09T10:43:57.572Z,92976.00
2023-01-09T10:46:37.421Z,92975.00
2023-01-09T10:49:16.303Z,92965.00
2023-01-09T10:52:14.814Z,92964.00
2023-01-09T10:54:55.097Z,92953.00
2023-01-09T10:57:45.314Z,92965.00
2023-01-09T11:00:24.024Z,92956.00
2023-01-09T11:02:52.947Z,92959.00
2023-01-09T11:05:28.192Z,92956.00
2023-01-09T11:08:29.808Z,92951.00
2023-01-09T11:11:00.160Z,92949.00
2023-01-09T11:13:36.459Z,92951.00
2023-01-09T11:16:20.841Z,92952.00
2023-01-09T11:18:59.204Z,92952.00
2023-01-09T11:21:32.073Z,92942.00
2023-01-09T11:24:27.833Z,92942.00
2023-01-09T11:27:20.817Z,92940.00
2023-01-09T11:30:20.632Z,92945.00
2023-01-09T11:32:48.673Z,92944.00
2023-01-09T11:35:26.588Z,92930.00
2023-01-09T11:38:29.514Z,92935.00
2023-01-09T11:41:01.076Z,92926.00
2023-01-09T11:43:38.193Z,92937.00
2023-01-09T11:46:11.992Z,92923.00
2023-01-09T11:49:00.506Z,92932.00
2023-01-09T11:51:34.918Z,92921.00
2023-01-09T11:54:42.104Z,92929.00
2023-01-09T11:57:12.220Z,92918.00
2023-01-09T11:59:39.426Z,92929.00
2023-01-09T12:02:56.653Z,92935.00
2023-01-09T12:06:07.729Z,92933.00
2023-01-09T12:09:08.387Z,92937.00
2023-01-09T12:11:59.805Z,92947.00
2023-01-09T12:14:55.799Z,92937.00
2023-01-09T12:17:56.625Z,92954.00
2023-01-09T12:20:35.446Z,92967.00
2023-01-09T12:23:25.039Z,92952.00
2023-01-09T12:26:20.607Z,92952.00
2023-01-09T12:29:08.640Z,92958.00
2023-01-09T12:32:33.685Z,92959.00
2023-01-09T12:35:24.379Z,92965.00
2023-01-09T12:38:32.121Z,92966.00
2023-01-09T12:41:39.295Z,92964.00
2023-01-09T12:44:51.076Z,92962.00
2023-01-09T12:47:45.974Z,92955.00
2023-01-09T12:50:49.724Z,92962.00
2023-01-09T12:53:31.144Z,92955.00
2023-01-09T12:56:17.114Z,92948.00
2023-01-09T12:58:51.235Z,92962.00
2023-01-09T13:01:27.006Z,92959.00
2023-01-09T13:04:34.804Z,92968.00
2023-01-09T13:07:06.870Z,92968.00
2023-01-09T13:09:47.143Z,92958.00
2023-01-09T13:12:21.792Z,92981.00
2023-01-09T13:14:54.237Z,92972.00
2023-01-09T13:17:38.308Z,92971.00
2023-01-09T13:20:17.002Z,92978.00
2023-01-09T13:22:49.978Z,92971.00
2023-01-09T13:25:38.258Z,92973.00
2023-01-09T13:28:34.542Z,92966.00
2023-01-09T13:31:30.126Z,92974.00
2023-01-09T13:34:04.541Z,92960.00
2023-01-09T13:36:40.199Z,92970.00
2023-01-09T13:39:17.208Z,92972.00
2023-01-09T13:42:09.430Z,92976.00
2023-01-09T13:44:36.330Z,92970.00
2023-01-09T13:47:03.937Z,92968.00
2023-01-09T13:49:42.773Z,92966.00
2023-01-09T13:52:42.714Z,92973.00
2023-01-09T13:55:14.775Z,92979.00
2023-01-09T13:58:08.115Z,92983.00
2023-01-09T14:00:38.113Z,92968.00
2023-01-09T14:03:08.078Z,92973.00
2023-01-09T14:05:34.895Z,92976.00
2023-01-09T14:08:07.033Z,92978.00
2023-01-09T14:10:46.340Z,92985.00
2023-01-09T14:13:26.901Z,92989.00
2023-01-09T14:16:07.699Z,92992.00
2023-01-09T14:18:42.148Z,93003.00
2023-01-09T14:21:12.338Z,93006.00
2023-01-09T14:24:06.965Z,93007.00
2023-01-09T14:26:57.787Z,93002.00
2023-01-09T14:29:43.907Z,93012.00
2023-01-09T14:32:27.332Z,93029.00
2023-01-09T14:35:08.665Z,93031.00
2023-01-09T14:37:37.944Z,93032.00
2023-01-09T14:40:21.673Z,93050.00
2023-01-09T14:42:54.299Z,93059.00
2023-01-09T14:45:27.376Z,93061.00
2023-01-09T14:48:00.935Z,93056.00
2023-01-09T14:50:30.855Z,93048.00
2023-01-09T14:53:31.018Z,93065.00
2023-01-09T14:55:59.757Z,93078.00
2023-01-09T14:58:34.529Z,93087.00
2023-01-09T15:01:10.296Z,93081.00
2023-01-09T15:03:45.949Z,93091.00
2023-01-09T15:06:24.442Z,93086.00
2023-01-09T15:09:05.228Z,93097.00
2023-01-09T15:11:36.101Z,93098.00
2023-01-09T15:14:05.186Z,93111.00
2023-01-09T15:16:35.135Z,93115.00
2023-01-09T15:19:07.869Z,93121.00
2023-01-09T15:21:36.941Z,93121.00
2023-01-09T15:24:28.768Z,93122.00
2023-01-09T15:27:24.450Z,93127.00
2023-01-09T15:29:54.577Z,93134.00
2023-01-09T15:32:33.155Z,93127.00
2023-01-09T15:35:03.548Z,93130.00
2023-01-09T15:37:38.578Z,93118.00
2023-01-09T15:40:08.407Z,93123.00
2023-01-09T15:42:58.007Z,93121.00
2023-01-09T15:45:39.470Z,93117.00
2023-01-09T15:48:18.574Z,93128.00
2023-01-09T15:50:54.150Z,93128.00
2023-01-09T15:53:28.849Z,93136.00
2023-01-09T15:56:08.087Z,93135.00
2023-01-09T15:58:40.842Z,93133.00
2023-01-09T16:01:24.888Z,93131.00
2023-01-09T16:03:54.780Z,93135.00
2023-01-09T16:06:29.810Z,93161.00
2023-01-09T16:09:01.871Z,93158.00
2023-01-09T16:11:35.708Z,93153.00
2023-01-09T16:14:25.132Z,93156.00
2023-01-09T16:16:58.379Z,93153.00
2023-01-09T16:19:52.871Z,93181.00
2023-01-09T16:22:30.383Z,93179.00
2023-01-09T16:25:04.038Z,93190.00
2023-01-09T16:27:33.556Z,93183.00
2023-01-09T16:30:29.260Z,93202.00
2023-01-09T16:32:56.178Z,93195.00
2023-01-09T16:35:28.123Z,93202.00
2023-01-09T16:37:57.074Z,93206.00
2023-01-09T16:40:31.802Z,93212.00
2023-01-09T16:43:01.188Z,93217.00
2023-01-09T16:45:40.753Z,93221.00
2023-01-09T16:48:21.463Z,93215.00
2023-01-09T16:50:48.582Z,93220.00
2023-01-09T16:53:27.280Z,93224.00
2023-01-09T16:55:54.698Z,93233.00
2023-01-09T16:58:35.420Z,93233.00
2023-01-09T17:01:02.356Z,93236.00
2023-01-09T17:03:29.236Z,93237.00
2023-01-09T17:05:59.289Z,93252.00
2023-01-09T17:08:37.160Z,93251.00
2023-01-09T17:11:05.039Z,93248.00
2023-01-09T17:13:32.031Z,93246.00
2023-01-09T17:15:59.912Z,93258.00
2023-01-09T17:18:28.520Z,93258.00
2023-01-09T17:21:03.436Z,93256.00
2023-01-09T17:23:33.384Z,93258.00
2023-01-09T17:26:18.696Z,93278.00
2023-01-09T17:28:52.547Z,93270.00
2023-01-09T17:31:22.258Z,93277.00
2023-01-09T17:33:53.990Z,93282.00
2023-01-09T17:36:34.596Z,93276.00
2023-01-09T17:39:09.287Z,93280.00
2023-01-09T17:41:38.704Z,93283.00
2023-01-09T17:44:05.714Z,93281.00
2023-01-09T17:46:35.909Z,93280.00
2023-01-09T17:49:06.733Z,93287.00
2023-01-09T17:51:35.827Z,93284.00
2023-01-09T17:54:02.705Z,93282.00
2023-01-09T17:56:33.656Z,93281.00
2023-01-09T17:59:03.474Z,93283.00
2023-01-09T18:01:30.619Z,93288.00
2023-01-09T18:03:57.557Z,93300.00
2023-01-09T18:06:24.953Z,93307.00
2023-01-09T18:08:55.703Z,93304.00
2023-01-09T18:11:24.279Z,93313.00
2023-01-09T18:13:58.409Z,93316.00
2023-01-09T18:16:29.081Z,93321.00
2023-01-09T18:18:58.406Z,93326.00
2023-01-09T18:21:28.193Z,93326.00
2023-01-09T18:23:56.504Z,93337.00
2023-01-09T18:26:24.036Z,93343.00
2023-01-09T18:28:56.216Z,93336.00
2023-01-09T18:31:28.204Z,93344.00
2023-01-09T18:34:02.401Z,93352.00
2023-01-09T18:36:31.997Z,93356.00
2023-01-09T18:39:01.916Z,93370.00
2023-01-09T18:41:31.832Z,93364.00
2023-01-09T18:44:03.901Z,93362.00
2023-01-09T18:46:33.503Z,93367.00
2023-01-09T18:49:05.226Z,93360.00
2023-01-09T18:51:37.029Z,93374.00
2023-01-09T18:54:04.919Z,93384.00
2023-01-09T18:56:31.839Z,93377.00
2023-01-09T18:58:59.219Z,93385.00
2023-01-09T19:01:28.044Z,93386.00
2023-01-09T19:04:00.078Z,93391.00
2023-01-09T19:06:34.386Z,93395.00
2023-01-09T19:09:01.381Z,93398.00
2023-01-09T19:11:28.318Z,93398.00
2023-01-09T19:13:55.390Z,93412.00
2023-01-09T19:16:27.834Z,93411.00
2023-01-09T19:19:02.645Z,93422.00
2023-01-09T19:21:29.782Z,93415.00
2023-01-09T19:24:00.955Z,93419.00
2023-01-09T19:26:30.843Z,93423.00
2023-01-09T19:29:02.273Z,93427.00
2023-01-09T19:31:32.208Z,93428.00
2023-01-09T19:34:04.877Z,93440.00
2023-01-09T19:36:31.972Z,93447.00
2023-01-09T19:39:01.350Z,93447.00
2023-01-09T19:41:29.023Z,93443.00
2023-01-09T19:43:58.698Z,93448.00
2023-01-09T19:46:29.590Z,93451.00
2023-01-09T19:49:01.537Z,93452.00
2023-01-09T19:51:32.572Z,93448.00
2023-01-09T19:54:03.227Z,93449.00
2023-01-09T19:56:35.550Z,93455.00
2023-01-09T19:59:04.675Z,93462.00
2023-01-09T20:01:36.131Z,93472.00
2023-01-09T20:04:07.582Z,93466.00
2023-01-09T20:06:35.787Z,93466.00
2023-01-09T20:09:04.882Z,93480.00
2023-01-09T20:11:35.095Z,93480.00
2023-01-09T20:14:02.021Z,93472.00
2023-01-09T20:16:32.592Z,93480.00
2023-01-09T20:19:03.886Z,93485.00
2023-01-09T20:21:35.832Z,93485.00
2023-01-09T20:24:07.567Z,93499.00
2023-01-09T20:26:36.825Z,93495.00
2023-01-09T20:29:10.235Z,93506.00
2023-01-09T20:31:37.232Z,93506.00
2023-01-09T20:34:11.235Z,93511.00
2023-01-09T20:36:40.821Z,93500.00
2023-01-09T20:39:12.327Z,93503.00
2023-01-09T20:41:42.137Z,93506.00
2023-01-09T20:44:18.147Z,93513.00
2023-01-09T20:46:49.762Z,93509.00
2023-01-09T20:49:18.420Z,93511.00
2023-01-09T20:51:49.561Z,93506.00
2023-01-09T20:54:17.656Z,93504.00
2023-01-09T20:56:44.798Z,93510.00
2023-01-09T20:59:17.217Z,93519.00
2023-01-09T21:01:44.292Z,93536.00
2023-01-09T21:04:11.313Z,93522.00
2023-01-09T21:06:38.767Z,93519.00
2023-01-09T21:09:12.614Z,93524.00
2023-01-09T21:11:39.596Z,93523.00
2023-01-09T21:14:06.763Z,93526.00
2023-01-09T21:16:33.729Z,93538.00
2023-01-09T21:19:00.885Z,93534.00
2023-01-09T21:21:31.078Z,93530.00
2023-01-09T21:24:00.552Z,93550.00
2023-01-09T21:26:32.742Z,93546.00
2023-01-09T21:29:08.214Z,93558.00
2023-01-09T21:31:38.498Z,93564.00
2023-01-09T21:34:12.755Z,93560.00
2023-01-09T21:36:45.058Z,93553.00
2023-01-09T21:39:16.581Z,93562.00
2023-01-09T21:42:01.895Z,93554.00
2023-01-09T21:44:47.435Z,93557.00
2023-01-09T21:47:16.729Z,93566.00
2023-01-09T21:49:49.056Z,93573.00
2023-01-09T21:52:21.634Z,93570.00
2023-01-09T21:54:48.572Z,93573.00
2023-01-09T21:57:16.067Z,93575.00
2023-01-09T21:59:43.351Z,93584.00
2023-01-09T22:02:15.870Z,93573.00
2023-01-09T22:04:48.950Z,93588.00
2023-01-09T22:07:16.601Z,93584.00
2023-01-09T22:09:44.644Z,93592.00
2023-01-09T22:12:16.724Z,93597.00
2023-01-09T22:14:46.029Z,93595.00
2023-01-09T22:17:16.054Z,93591.00
2023-01-09T22:19:42.920Z,93594.00
2023-01-09T22:22:12.091Z,93600.00
2023-01-09T22:24:39.036Z,93600.00
2023-01-09T22:27:06.094Z,93600.00
2023-01-09T22:29:35.576Z,93609.00
2023-01-09T22:32:03.836Z,93610.00
2023-01-09T22:34:33.089Z,93617.00
2023-01-09T22:37:00.112Z,93627.00
2023-01-09T22:39:27.091Z,93626.00
2023-01-09T22:41:55.293Z,93627.00
2023-01-09T22:44:22.401Z,93639.00
2023-01-09T22:46:51.826Z,93640.00
2023-01-09T22:49:18.761Z,93647.00
2023-01-09T22:51:45.651Z,93649.00
2023-01-09T22:54:12.491Z,93657.00
2023-01-09T22:56:42.464Z,93659.00
2023-01-09T22:59:13.999Z,93669.00
2023-01-09T23:01:40.837Z,93666.00
2023-01-09T23:04:16.888Z,93670.00
2023-01-09T23:06:45.951Z,93666.00
2023-01-09T23:09:12.888Z,93676.00
2023-01-09T23:11:58.131Z,93670.00
2023-01-09T23:14:27.654Z,93674.00
2023-01-09T23:16:57.491Z,93680.00
2023-01-09T23:19:25.047Z,93667.00
2023-01-09T23:21:54.470Z,93672.00
2023-01-09T23:24:29.287Z,93684.00
2023-01-09T23:26:56.987Z,93696.00
2023-01-09T23:29:24.838Z,93702.00
2023-01-09T23:31:53.599Z,93700.00
2023-01-09T23:34:26.431Z,93704.00
2023-01-09T23:36:57.168Z,93707.00
2023-01-09T23:39:24.662Z,93702.00
2023-01-09T23:42:12.486Z,93718.00
2023-01-09T23:44:44.102Z,93714.00
2023-01-09T23:47:13.152Z,93728.00
2023-01-09T23:49:40.091Z,93722.00
2023-01-09T23:52:09.104Z,93733.00
2023-01-09T23:54:40.610Z,93744.00
2023-01-09T23:57:07.492Z,93750.00
2023-01-09T23:59:36.966Z,93750.00
